sensor_id;sensor_type;location;lat;lon;timestamp;pressure;altitude;pressure_sealevel;temperature;humidity
54270;BME280;40181;51.560;13.000;2022-12-10T00:01:53;99885.94;;;0.33;100.00
54270;BME280;40181;51.560;13.000;2022-12-10T00:04:22;99873.22;;;0.38;100.00
54270;BME280;40181;51.560;13.000;2022-12-10T00:06:51;99880.94;;;0.36;100.00
54270;BME280;40181;51.560;13.000;2022-12-10T00:09:20;99887.03;;;0.38;100.00
54270;BME280;40181;51.560;13.000;2022-12-10T00:11:50;99889.03;;;0.24;100.00
54270;BME280;40181;51.560;13.000;2022-12-10T00:14:19;99886.16;;;0.38;100.00
54270;BME280;40181;51.560;13.000;2022-12-10T00:16:48;99882.28;;;0.48;100.00
54270;BME280;40181;51.560;13.000;2022-12-10T00:19:20;99882.19;;;0.46;100.00
54270;BME280;40181;51.560;13.000;2022-12-10T00:21:49;99881.47;;;0.29;100.00
54270;BME280;40181;51.560;13.000;2022-12-10T00:24:18;99884.38;;;0.37;100.00
54270;BME280;40181;51.560;13.000;2022-12-10T00:26:47;99891.00;;;0.30;100.00
54270;BME280;40181;51.560;13.000;2022-12-10T00:29:17;99890.25;;;0.33;100.00
54270;BME280;40181;51.560;13.000;2022-12-10T00:31:46;99897.78;;;0.28;100.00
54270;BME280;40181;51.560;13.000;2022-12-10T00:34:15;99886.50;;;0.26;100.00
54270;BME280;40181;51.560;13.000;2022-12-10T00:36:48;99893.16;;;0.40;100.00
54270;BME280;40181;51.560;13.000;2022-12-10T00:39:19;99888.53;;;0.33;100.00
54270;BME280;40181;51.560;13.000;2022-12-10T00:41:48;99892.25;;;0.40;100.00
54270;BME280;40181;51.560;13.000;2022-12-10T00:44:18;99889.56;;;0.37;100.00
54270;BME280;40181;51.560;13.000;2022-12-10T00:46:47;99895.53;;;0.36;100.00
54270;BME280;40181;51.560;13.000;2022-12-10T00:49:16;99884.88;;;0.28;100.00
54270;BME280;40181;51.560;13.000;2022-12-10T00:51:53;99878.56;;;0.41;100.00
54270;BME280;40181;51.560;13.000;2022-12-10T00:54:22;99881.34;;;0.46;100.00
54270;BME280;40181;51.560;13.000;2022-12-10T00:56:52;99883.84;;;0.44;100.00
54270;BME280;40181;51.560;13.000;2022-12-10T00:59:21;99878.00;;;0.29;100.00
54270;BME280;40181;51.560;13.000;2022-12-10T01:01:50;99885.47;;;0.42;100.00
54270;BME280;40181;51.560;13.000;2022-12-10T01:04:20;99882.94;;;0.44;100.00
54270;BME280;40181;51.560;13.000;2022-12-10T01:06:53;99881.19;;;0.43;100.00
54270;BME280;40181;51.560;13.000;2022-12-10T01:09:24;99880.13;;;0.37;100.00
54270;BME280;40181;51.560;13.000;2022-12-10T01:11:57;99885.41;;;0.40;100.00
54270;BME280;40181;51.560;13.000;2022-12-10T01:14:32;99889.22;;;0.49;100.00
54270;BME280;40181;51.560;13.000;2022-12-10T01:17:03;99890.84;;;0.47;100.00
54270;BME280;40181;51.560;13.000;2022-12-10T01:19:34;99892.59;;;0.48;100.00
54270;BME280;40181;51.560;13.000;2022-12-10T01:22:05;99888.91;;;0.62;100.00
54270;BME280;40181;51.560;13.000;2022-12-10T01:24:35;99888.38;;;0.50;100.00
54270;BME280;40181;51.560;13.000;2022-12-10T01:27:04;99897.22;;;0.55;100.00
54270;BME280;40181;51.560;13.000;2022-12-10T01:29:33;99894.66;;;0.55;100.00
54270;BME280;40181;51.560;13.000;2022-12-10T01:32:03;99907.69;;;0.58;100.00
54270;BME280;40181;51.560;13.000;2022-12-10T01:34:32;99902.25;;;0.52;100.00
54270;BME280;40181;51.560;13.000;2022-12-10T01:37:01;99901.28;;;0.69;99.79
54270;BME280;40181;51.560;13.000;2022-12-10T01:39:33;99911.78;;;0.73;99.38
54270;BME280;40181;51.560;13.000;2022-12-10T01:42:03;99895.97;;;0.66;99.52
54270;BME280;40181;51.560;13.000;2022-12-10T01:44:58;99899.19;;;0.61;99.40
54270;BME280;40181;51.560;13.000;2022-12-10T01:47:29;99900.22;;;0.64;99.54
54270;BME280;40181;51.560;13.000;2022-12-10T01:49:59;99902.81;;;0.64;99.66
54270;BME280;40181;51.560;13.000;2022-12-10T01:52:31;99910.16;;;0.55;99.93
54270;BME280;40181;51.560;13.000;2022-12-10T01:55:00;99911.97;;;0.58;100.00
54270;BME280;40181;51.560;13.000;2022-12-10T01:57:29;99909.53;;;0.61;100.00
54270;BME280;40181;51.560;13.000;2022-12-10T02:00:02;99899.00;;;0.56;99.87
54270;BME280;40181;51.560;13.000;2022-12-10T02:02:39;99915.44;;;0.58;99.77
54270;BME280;40181;51.560;13.000;2022-12-10T02:05:22;99911.66;;;0.50;100.00
54270;BME280;40181;51.560;13.000;2022-12-10T02:08:04;99898.19;;;0.37;100.00
54270;BME280;40181;51.560;13.000;2022-12-10T02:10:46;99892.53;;;0.46;100.00
54270;BME280;40181;51.560;13.000;2022-12-10T02:13:28;99905.47;;;0.46;100.00
54270;BME280;40181;51.560;13.000;2022-12-10T02:16:04;99902.78;;;0.45;100.00
54270;BME280;40181;51.560;13.000;2022-12-10T02:18:39;99906.00;;;0.39;100.00
54270;BME280;40181;51.560;13.000;2022-12-10T02:21:16;99894.91;;;0.41;100.00
54270;BME280;40181;51.560;13.000;2022-12-10T02:23:54;99897.78;;;0.48;100.00
54270;BME280;40181;51.560;13.000;2022-12-10T02:26:33;99904.91;;;0.53;100.00
54270;BME280;40181;51.560;13.000;2022-12-10T02:29:16;99897.69;;;0.46;100.00
54270;BME280;40181;51.560;13.000;2022-12-10T02:31:50;99902.94;;;0.48;100.00
54270;BME280;40181;51.560;13.000;2022-12-10T02:34:23;99897.50;;;0.41;100.00
54270;BME280;40181;51.560;13.000;2022-12-10T02:36:54;99893.34;;;0.45;100.00
54270;BME280;40181;51.560;13.000;2022-12-10T02:39:29;99894.94;;;0.22;100.00
54270;BME280;40181;51.560;13.000;2022-12-10T02:42:02;99891.00;;;0.30;100.00
54270;BME280;40181;51.560;13.000;2022-12-10T02:44:36;99892.00;;;0.34;100.00
54270;BME280;40181;51.560;13.000;2022-12-10T02:47:07;99900.22;;;0.45;100.00
54270;BME280;40181;51.560;13.000;2022-12-10T02:49:39;99901.09;;;0.45;100.00
54270;BME280;40181;51.560;13.000;2022-12-10T02:52:13;99896.75;;;0.44;100.00
54270;BME280;40181;51.560;13.000;2022-12-10T02:54:44;99900.97;;;0.42;100.00
54270;BME280;40181;51.560;13.000;2022-12-10T02:57:27;99899.66;;;0.52;100.00
54270;BME280;40181;51.560;13.000;2022-12-10T03:00:08;99897.38;;;0.38;100.00
54270;BME280;40181;51.560;13.000;2022-12-10T03:03:02;99899.06;;;0.38;100.00
54270;BME280;40181;51.560;13.000;2022-12-10T03:05:43;99899.06;;;0.38;100.00
54270;BME280;40181;51.560;13.000;2022-12-10T03:08:17;99905.34;;;0.43;100.00
54270;BME280;40181;51.560;13.000;2022-12-10T03:10:54;99900.50;;;0.31;100.00
54270;BME280;40181;51.560;13.000;2022-12-10T03:13:29;99898.88;;;0.33;100.00
54270;BME280;40181;51.560;13.000;2022-12-10T03:16:07;99899.47;;;0.47;100.00
54270;BME280;40181;51.560;13.000;2022-12-10T03:18:38;99903.75;;;0.27;100.00
54270;BME280;40181;51.560;13.000;2022-12-10T03:21:09;99904.31;;;0.39;100.00
54270;BME280;40181;51.560;13.000;2022-12-10T03:23:40;99906.00;;;0.39;100.00
54270;BME280;40181;51.560;13.000;2022-12-10T03:26:12;99906.69;;;0.35;100.00
54270;BME280;40181;51.560;13.000;2022-12-10T03:28:44;99900.78;;;0.37;100.00
54270;BME280;40181;51.560;13.000;2022-12-10T03:31:18;99899.56;;;0.29;100.00
54270;BME280;40181;51.560;13.000;2022-12-10T03:33:48;99913.22;;;0.26;100.00
54270;BME280;40181;51.560;13.000;2022-12-10T03:36:19;99912.06;;;0.20;100.00
54270;BME280;40181;51.560;13.000;2022-12-10T03:38:49;99918.25;;;0.23;100.00
54270;BME280;40181;51.560;13.000;2022-12-10T03:41:19;99912.19;;;0.23;100.00
54270;BME280;40181;51.560;13.000;2022-12-10T03:43:52;99900.84;;;0.39;100.00
54270;BME280;40181;51.560;13.000;2022-12-10T03:46:28;99912.88;;;0.19;100.00
54270;BME280;40181;51.560;13.000;2022-12-10T03:48:59;99916.53;;;0.24;100.00
54270;BME280;40181;51.560;13.000;2022-12-10T03:51:29;99913.00;;;0.22;100.00
54270;BME280;40181;51.560;13.000;2022-12-10T03:53:58;99910.50;;;0.23;100.00
54270;BME280;40181;51.560;13.000;2022-12-10T03:56:28;99911.66;;;0.30;100.00
54270;BME280;40181;51.560;13.000;2022-12-10T03:58:57;99906.63;;;0.33;100.00
54270;BME280;40181;51.560;13.000;2022-12-10T04:01:29;99903.09;;;0.31;100.00
54270;BME280;40181;51.560;13.000;2022-12-10T04:03:58;99905.59;;;0.30;100.00
54270;BME280;40181;51.560;13.000;2022-12-10T04:06:27;99909.31;;;0.17;100.00
54270;BME280;40181;51.560;13.000;2022-12-10T04:08:56;99911.78;;;0.33;100.00
54270;BME280;40181;51.560;13.000;2022-12-10T04:11:26;99906.91;;;0.39;100.00
54270;BME280;40181;51.560;13.000;2022-12-10T04:13:55;99915.59;;;0.22;100.00
54270;BME280;40181;51.560;13.000;2022-12-10T04:16:40;99910.97;;;0.15;100.00
54270;BME280;40181;51.560;13.000;2022-12-10T04:19:12;99924.16;;;0.21;100.00
54270;BME280;40181;51.560;13.000;2022-12-10T04:21:44;99911.50;;;0.07;100.00
54270;BME280;40181;51.560;13.000;2022-12-10T04:24:29;99912.81;;;0.17;100.00
54270;BME280;40181;51.560;13.000;2022-12-10T04:27:13;99916.63;;;0.06;100.00
54270;BME280;40181;51.560;13.000;2022-12-10T04:29:45;99922.66;;;0.06;100.00
54270;BME280;40181;51.560;13.000;2022-12-10T04:32:18;99917.91;;;0.16;100.00
54270;BME280;40181;51.560;13.000;2022-12-10T04:34:48;99917.91;;;0.16;100.00
54270;BME280;40181;51.560;13.000;2022-12-10T04:37:18;99913.81;;;0.01;100.00
54270;BME280;40181;51.560;13.000;2022-12-10T04:39:49;99915.19;;;0.12;100.00
54270;BME280;40181;51.560;13.000;2022-12-10T04:42:18;99912.88;;;0.19;100.00
54270;BME280;40181;51.560;13.000;2022-12-10T04:44:49;99911.91;;;-0.03;100.00
54270;BME280;40181;51.560;13.000;2022-12-10T04:47:21;99912.19;;;0.03;100.00
54270;BME280;40181;51.560;13.000;2022-12-10T04:49:51;99920.28;;;0.11;100.00
54270;BME280;40181;51.560;13.000;2022-12-10T04:52:20;99919.41;;;0.10;100.00
54270;BME280;40181;51.560;13.000;2022-12-10T04:54:49;99915.47;;;0.19;100.00
54270;BME280;40181;51.560;13.000;2022-12-10T04:57:18;99909.19;;;0.13;100.00
54270;BME280;40181;51.560;13.000;2022-12-10T04:59:48;99916.31;;;-0.01;100.00
54270;BME280;40181;51.560;13.000;2022-12-10T05:02:17;99918.34;;;-0.13;100.00
54270;BME280;40181;51.560;13.000;2022-12-10T05:04:49;99916.19;;;-0.04;100.00
54270;BME280;40181;51.560;13.000;2022-12-10T05:07:18;99920.13;;;0.08;100.00
54270;BME280;40181;51.560;13.000;2022-12-10T05:09:47;99925.91;;;0.02;100.00
54270;BME280;40181;51.560;13.000;2022-12-10T05:12:16;99919.44;;;-0.08;100.00
54270;BME280;40181;51.560;13.000;2022-12-10T05:14:46;99918.41;;;-0.11;100.00
54270;BME280;40181;51.560;13.000;2022-12-10T05:17:15;99923.09;;;-0.22;100.00
54270;BME280;40181;51.560;13.000;2022-12-10T05:19:46;99922.13;;;-0.24;100.00
54270;BME280;40181;51.560;13.000;2022-12-10T05:22:16;99917.13;;;-0.39;100.00
54270;BME280;40181;51.560;13.000;2022-12-10T05:24:57;99921.16;;;-0.26;100.00
54270;BME280;40181;51.560;13.000;2022-12-10T05:27:31;99921.94;;;-0.09;100.00
54270;BME280;40181;51.560;13.000;2022-12-10T05:30:00;99918.66;;;-0.25;100.00
54270;BME280;40181;51.560;13.000;2022-12-10T05:32:30;99920.13;;;-0.12;100.00
54270;BME280;40181;51.560;13.000;2022-12-10T05:35:02;99920.03;;;-0.13;100.00
54270;BME280;40181;51.560;13.000;2022-12-10T05:37:33;99928.22;;;-0.04;100.00
54270;BME280;40181;51.560;13.000;2022-12-10T05:40:03;99927.31;;;-0.05;100.00
54270;BME280;40181;51.560;13.000;2022-12-10T05:42:33;99933.84;;;-0.13;100.00
54270;BME280;40181;51.560;13.000;2022-12-10T05:45:03;99933.69;;;-0.16;100.00
54270;BME280;40181;51.560;13.000;2022-12-10T05:47:33;99934.59;;;-0.16;100.00
54270;BME280;40181;51.560;13.000;2022-12-10T05:50:05;99930.28;;;-0.15;100.00
54270;BME280;40181;51.560;13.000;2022-12-10T05:52:35;99937.81;;;-0.20;100.00
54270;BME280;40181;51.560;13.000;2022-12-10T05:55:05;99928.38;;;-0.37;100.00
54270;BME280;40181;51.560;13.000;2022-12-10T05:57:35;99936.34;;;-0.15;100.00
54270;BME280;40181;51.560;13.000;2022-12-10T06:00:05;99941.00;;;-0.25;100.00
54270;BME280;40181;51.560;13.000;2022-12-10T06:02:35;99930.97;;;-0.19;100.00
54270;BME280;40181;51.560;13.000;2022-12-10T06:05:08;99940.06;;;-0.28;100.00
54270;BME280;40181;51.560;13.000;2022-12-10T06:07:37;99941.47;;;-0.34;100.00
54270;BME280;40181;51.560;13.000;2022-12-10T06:10:07;99933.19;;;-0.27;100.00
54270;BME280;40181;51.560;13.000;2022-12-10T06:12:37;99942.72;;;-0.26;100.00
54270;BME280;40181;51.560;13.000;2022-12-10T06:15:07;99940.25;;;-0.23;100.00
54270;BME280;40181;51.560;13.000;2022-12-10T06:17:38;99937.69;;;-0.23;100.00
54270;BME280;40181;51.560;13.000;2022-12-10T06:20:10;99944.75;;;-0.19;100.00
54270;BME280;40181;51.560;13.000;2022-12-10T06:22:40;99941.72;;;-0.28;100.00
54270;BME280;40181;51.560;13.000;2022-12-10T06:25:09;99943.41;;;-0.10;100.00
54270;BME280;40181;51.560;13.000;2022-12-10T06:27:38;99952.06;;;-0.28;100.00
54270;BME280;40181;51.560;13.000;2022-12-10T06:30:09;99954.84;;;-0.23;100.00
54270;BME280;40181;51.560;13.000;2022-12-10T06:32:39;99959.66;;;-0.31;100.00
54270;BME280;40181;51.560;13.000;2022-12-10T06:35:12;99951.19;;;-0.29;100.00
54270;BME280;40181;51.560;13.000;2022-12-10T06:37:41;99957.44;;;-0.23;100.00
54270;BME280;40181;51.560;13.000;2022-12-10T06:40:11;99961.13;;;-0.18;100.00
54270;BME280;40181;51.560;13.000;2022-12-10T06:42:40;99956.78;;;-0.37;100.00
54270;BME280;40181;51.560;13.000;2022-12-10T06:45:11;99954.16;;;-0.39;100.00
54270;BME280;40181;51.560;13.000;2022-12-10T06:47:40;99958.78;;;-0.32;100.00
54270;BME280;40181;51.560;13.000;2022-12-10T06:50:12;99962.25;;;-0.31;100.00
54270;BME280;40181;51.560;13.000;2022-12-10T06:52:41;99964.19;;;-0.27;100.00
54270;BME280;40181;51.560;13.000;2022-12-10T06:55:11;99975.59;;;-0.22;100.00
54270;BME280;40181;51.560;13.000;2022-12-10T06:57:40;99967.72;;;-0.25;100.00
54270;BME280;40181;51.560;13.000;2022-12-10T07:00:10;99971.84;;;-0.29;100.00
54270;BME280;40181;51.560;13.000;2022-12-10T07:02:41;99972.41;;;-0.16;100.00
54270;BME280;40181;51.560;13.000;2022-12-10T07:05:12;99974.50;;;-0.27;100.00
54270;BME280;40181;51.560;13.000;2022-12-10T07:07:42;99972.56;;;-0.31;100.00
54270;BME280;40181;51.560;13.000;2022-12-10T07:10:11;99987.94;;;-0.34;100.00
54270;BME280;40181;51.560;13.000;2022-12-10T07:12:41;99983.19;;;-0.25;100.00
54270;BME280;40181;51.560;13.000;2022-12-10T07:15:10;99982.00;;;-0.32;100.00
54270;BME280;40181;51.560;13.000;2022-12-10T07:17:39;99987.31;;;-0.29;100.00
54270;BME280;40181;51.560;13.000;2022-12-10T07:20:12;99994.34;;;-0.26;100.00
54270;BME280;40181;51.560;13.000;2022-12-10T07:22:41;99988.50;;;-0.22;100.00
54270;BME280;40181;51.560;13.000;2022-12-10T07:25:10;99992.06;;;-0.38;100.00
54270;BME280;40181;51.560;13.000;2022-12-10T07:27:39;99994.03;;;-0.32;100.00
54270;BME280;40181;51.560;13.000;2022-12-10T07:30:10;99989.53;;;-0.36;100.00
54270;BME280;40181;51.560;13.000;2022-12-10T07:32:39;99998.53;;;-0.46;100.00
54270;BME280;40181;51.560;13.000;2022-12-10T07:35:11;100003.31;;;-0.36;100.00
54270;BME280;40181;51.560;13.000;2022-12-10T07:37:41;99995.44;;;-0.39;100.00
54270;BME280;40181;51.560;13.000;2022-12-10T07:40:11;99997.22;;;-0.38;100.00
54270;BME280;40181;51.560;13.000;2022-12-10T07:42:40;99993.66;;;-0.22;100.00
54270;BME280;40181;51.560;13.000;2022-12-10T07:45:10;99997.22;;;-0.38;100.00
54270;BME280;40181;51.560;13.000;2022-12-10T07:47:39;100001.53;;;-0.19;100.00
54270;BME280;40181;51.560;13.000;2022-12-10T07:50:08;100002.91;;;-0.27;100.00
54270;BME280;40181;51.560;13.000;2022-12-10T07:52:40;99999.25;;;-0.12;100.00
54270;BME280;40181;51.560;13.000;2022-12-10T07:55:09;100002.13;;;-0.24;100.00
54270;BME280;40181;51.560;13.000;2022-12-10T07:57:38;100006.06;;;-0.15;100.00
54270;BME280;40181;51.560;13.000;2022-12-10T08:00:09;100012.47;;;-0.24;100.00
54270;BME280;40181;51.560;13.000;2022-12-10T08:02:39;100007.91;;;-0.30;100.00
54270;BME280;40181;51.560;13.000;2022-12-10T08:05:11;100007.44;;;-0.39;100.00
54270;BME280;40181;51.560;13.000;2022-12-10T08:07:40;100012.31;;;-0.09;100.00
54270;BME280;40181;51.560;13.000;2022-12-10T08:10:10;100012.19;;;-0.12;100.00
54270;BME280;40181;51.560;13.000;2022-12-10T08:12:39;100015.72;;;-0.10;100.00
54270;BME280;40181;51.560;13.000;2022-12-10T08:15:09;100018.66;;;-0.21;100.00
54270;BME280;40181;51.560;13.000;2022-12-10T08:17:38;100016.59;;;-0.10;100.00
54270;BME280;40181;51.560;13.000;2022-12-10T08:20:08;100017.25;;;-0.14;100.00
54270;BME280;40181;51.560;13.000;2022-12-10T08:22:40;100026.63;;;-0.16;100.00
54270;BME280;40181;51.560;13.000;2022-12-10T08:25:10;100030.84;;;-0.18;100.00
54270;BME280;40181;51.560;13.000;2022-12-10T08:27:39;100029.66;;;-0.25;100.00
54270;BME280;40181;51.560;13.000;2022-12-10T08:30:09;100024.88;;;-0.17;100.00
54270;BME280;40181;51.560;13.000;2022-12-10T08:32:38;100026.56;;;-0.18;100.00
54270;BME280;40181;51.560;13.000;2022-12-10T08:35:08;100036.72;;;-0.21;100.00
54270;BME280;40181;51.560;13.000;2022-12-10T08:37:40;100023.63;;;-0.07;100.00
54270;BME280;40181;51.560;13.000;2022-12-10T08:40:10;100027.31;;;-0.20;100.00
54270;BME280;40181;51.560;13.000;2022-12-10T08:42:40;100027.38;;;-0.19;100.00
54270;BME280;40181;51.560;13.000;2022-12-10T08:45:09;100029.06;;;-0.37;100.00
54270;BME280;40181;51.560;13.000;2022-12-10T08:47:38;100025.78;;;-0.51;100.00
54270;BME280;40181;51.560;13.000;2022-12-10T08:50:08;100034.38;;;-0.34;100.00
54270;BME280;40181;51.560;13.000;2022-12-10T08:52:40;100033.72;;;-0.48;100.00
54270;BME280;40181;51.560;13.000;2022-12-10T08:55:09;100049.78;;;-0.36;100.00
54270;BME280;40181;51.560;13.000;2022-12-10T08:57:39;100037.47;;;-0.23;99.98
54270;BME280;40181;51.560;13.000;2022-12-10T09:00:09;100045.88;;;-0.28;100.00
54270;BME280;40181;51.560;13.000;2022-12-10T09:02:40;100045.00;;;-0.28;99.93
54270;BME280;40181;51.560;13.000;2022-12-10T09:05:12;100041.03;;;-0.21;99.69
54270;BME280;40181;51.560;13.000;2022-12-10T09:07:41;100063.13;;;-0.45;99.74
54270;BME280;40181;51.560;13.000;2022-12-10T09:10:10;100049.88;;;-0.34;100.00
54270;BME280;40181;51.560;13.000;2022-12-10T09:12:40;100054.84;;;-0.37;100.00
54270;BME280;40181;51.560;13.000;2022-12-10T09:15:10;100051.28;;;-0.23;99.93
54270;BME280;40181;51.560;13.000;2022-12-10T09:17:39;100052.88;;;-0.43;99.62
54270;BME280;40181;51.560;13.000;2022-12-10T09:20:08;100047.44;;;-0.31;99.97
54270;BME280;40181;51.560;13.000;2022-12-10T09:22:40;100058.78;;;-0.28;99.91
54270;BME280;40181;51.560;13.000;2022-12-10T09:25:10;100053.44;;;-0.49;100.00
54270;BME280;40181;51.560;13.000;2022-12-10T09:27:40;100050.81;;;-0.32;100.00
54270;BME280;40181;51.560;13.000;2022-12-10T09:30:11;100054.63;;;-0.42;100.00
54270;BME280;40181;51.560;13.000;2022-12-10T09:32:40;100047.19;;;-0.36;99.96
54270;BME280;40181;51.560;13.000;2022-12-10T09:35:12;100052.22;;;-0.39;100.00
54270;BME280;40181;51.560;13.000;2022-12-10T09:37:41;100053.31;;;-0.34;100.00
54270;BME280;40181;51.560;13.000;2022-12-10T09:40:14;100045.16;;;-0.25;99.80
54270;BME280;40181;51.560;13.000;2022-12-10T09:42:50;100052.28;;;-0.37;100.00
54270;BME280;40181;51.560;13.000;2022-12-10T09:45:29;100047.88;;;-0.40;99.52
54270;BME280;40181;51.560;13.000;2022-12-10T09:48:13;100054.13;;;-0.35;100.00
54270;BME280;40181;51.560;13.000;2022-12-10T09:50:55;100043.03;;;-0.50;100.00
54270;BME280;40181;51.560;13.000;2022-12-10T09:53:30;100040.69;;;-0.46;100.00
54270;BME280;40181;51.560;13.000;2022-12-10T09:56:01;100045.22;;;-0.42;100.00
54270;BME280;40181;51.560;13.000;2022-12-10T09:58:33;100042.09;;;-0.52;100.00
54270;BME280;40181;51.560;13.000;2022-12-10T10:01:05;100035.38;;;-0.49;100.00
54270;BME280;40181;51.560;13.000;2022-12-10T10:03:38;100040.09;;;-0.58;100.00
54270;BME280;40181;51.560;13.000;2022-12-10T10:06:12;100034.00;;;-0.77;100.00
54270;BME280;40181;51.560;13.000;2022-12-10T10:08:45;100031.63;;;-0.56;100.00
54270;BME280;40181;51.560;13.000;2022-12-10T10:11:18;100035.75;;;-0.41;100.00
54270;BME280;40181;51.560;13.000;2022-12-10T10:13:52;100042.13;;;-0.34;100.00
54270;BME280;40181;51.560;13.000;2022-12-10T10:16:25;100028.53;;;-0.48;100.00
54270;BME280;40181;51.560;13.000;2022-12-10T10:18:58;100029.13;;;-0.54;100.00
54270;BME280;40181;51.560;13.000;2022-12-10T10:21:34;100028.16;;;-0.56;100.00
54270;BME280;40181;51.560;13.000;2022-12-10T10:24:06;100028.97;;;-0.57;100.00
54270;BME280;40181;51.560;13.000;2022-12-10T10:26:47;100032.22;;;-0.43;100.00
54270;BME280;40181;51.560;13.000;2022-12-10T10:29:20;100025.50;;;-0.39;100.00
54270;BME280;40181;51.560;13.000;2022-12-10T10:32:11;100024.88;;;-0.35;99.74
54270;BME280;40181;51.560;13.000;2022-12-10T10:34:43;100024.13;;;-0.51;100.00
54270;BME280;40181;51.560;13.000;2022-12-10T10:37:21;100030.72;;;-0.56;99.88
54270;BME280;40181;51.560;13.000;2022-12-10T10:39:52;100030.09;;;-0.52;99.96
54270;BME280;40181;51.560;13.000;2022-12-10T10:42:28;100037.97;;;-0.49;99.88
54270;BME280;40181;51.560;13.000;2022-12-10T10:45:04;100025.53;;;-0.74;99.47
54270;BME280;40181;51.560;13.000;2022-12-10T10:47:37;100035.06;;;-0.73;99.81
54270;BME280;40181;51.560;13.000;2022-12-10T10:50:23;100030.13;;;-0.50;99.22
54270;BME280;40181;51.560;13.000;2022-12-10T10:52:55;100028.81;;;-0.60;99.31
54270;BME280;40181;51.560;13.000;2022-12-10T10:55:32;100024.88;;;-0.70;100.00
54270;BME280;40181;51.560;13.000;2022-12-10T10:58:02;100023.91;;;-0.72;99.64
54270;BME280;40181;51.560;13.000;2022-12-10T11:00:31;100024.06;;;-0.69;99.76
54270;BME280;40181;51.560;13.000;2022-12-10T11:03:01;100027.16;;;-0.76;100.00
54270;BME280;40181;51.560;13.000;2022-12-10T11:05:30;100017.81;;;-0.74;99.98
54270;BME280;40181;51.560;13.000;2022-12-10T11:08:04;100024.94;;;-0.52;100.00
54270;BME280;40181;51.560;13.000;2022-12-10T11:10:36;100016.19;;;-0.72;100.00
54270;BME280;40181;51.560;13.000;2022-12-10T11:13:10;100025.53;;;-0.74;100.00
54270;BME280;40181;51.560;13.000;2022-12-10T11:15:55;100018.63;;;-0.75;99.59
54270;BME280;40181;51.560;13.000;2022-12-10T11:18:30;100022.28;;;-0.70;99.77
54270;BME280;40181;51.560;13.000;2022-12-10T11:21:04;100020.63;;;-0.70;99.68
54270;BME280;40181;51.560;13.000;2022-12-10T11:23:40;100021.00;;;-0.62;99.32
54270;BME280;40181;51.560;13.000;2022-12-10T11:26:24;100025.97;;;-0.48;99.03
54270;BME280;40181;51.560;13.000;2022-12-10T11:29:14;100018.50;;;-0.60;98.80
54270;BME280;40181;51.560;13.000;2022-12-10T11:32:03;100021.00;;;-0.62;99.11
54270;BME280;40181;51.560;13.000;2022-12-10T11:34:48;100028.63;;;-0.63;99.61
54270;BME280;40181;51.560;13.000;2022-12-10T11:37:28;100019.41;;;-0.42;98.84
54270;BME280;40181;51.560;13.000;2022-12-10T11:40:23;100017.59;;;-0.61;98.70
54270;BME280;40181;51.560;13.000;2022-12-10T11:43:14;100028.00;;;-0.59;99.08
54270;BME280;40181;51.560;13.000;2022-12-10T11:45:58;100018.88;;;-0.52;99.22
54270;BME280;40181;51.560;13.000;2022-12-10T11:48:50;100027.28;;;-0.57;99.29
54270;BME280;40181;51.560;13.000;2022-12-10T11:51:32;100028.47;;;-0.50;98.83
54270;BME280;40181;51.560;13.000;2022-12-10T11:54:20;100024.63;;;-0.58;98.83
54270;BME280;40181;51.560;13.000;2022-12-10T11:57:04;100029.59;;;-0.45;99.16
54270;BME280;40181;51.560;13.000;2022-12-10T11:59:44;100034.56;;;-0.48;99.77
54270;BME280;40181;51.560;13.000;2022-12-10T12:02:38;100033.41;;;-0.36;98.99
54270;BME280;40181;51.560;13.000;2022-12-10T12:05:36;100024.56;;;-0.23;99.50
54270;BME280;40181;51.560;13.000;2022-12-10T12:08:35;100020.59;;;-0.17;98.80
54270;BME280;40181;51.560;13.000;2022-12-10T12:11:18;100023.41;;;-0.12;98.39
54270;BME280;40181;51.560;13.000;2022-12-10T12:13:59;100025.88;;;-0.32;98.27
54270;BME280;40181;51.560;13.000;2022-12-10T12:16:36;100023.53;;;-0.45;98.36
54270;BME280;40181;51.560;13.000;2022-12-10T12:19:14;100025.00;;;-0.32;98.16
54270;BME280;40181;51.560;13.000;2022-12-10T12:21:47;100032.22;;;-0.61;97.97
54270;BME280;40181;51.560;13.000;2022-12-10T12:24:21;100033.47;;;-0.35;97.78
54270;BME280;40181;51.560;13.000;2022-12-10T12:27:00;100031.56;;;-0.39;98.16
54270;BME280;40181;51.560;13.000;2022-12-10T12:29:39;100041.38;;;-0.50;98.80
54270;BME280;40181;51.560;13.000;2022-12-10T12:32:15;100033.63;;;-0.50;99.40
54270;BME280;40181;51.560;13.000;2022-12-10T12:34:51;100035.63;;;-0.44;98.91
54270;BME280;40181;51.560;13.000;2022-12-10T12:37:28;100042.16;;;-0.51;98.53
54270;BME280;40181;51.560;13.000;2022-12-10T12:40:07;100036.97;;;-0.69;99.61
54270;BME280;40181;51.560;13.000;2022-12-10T12:42:45;100051.38;;;-0.56;99.13
54270;BME280;40181;51.560;13.000;2022-12-10T12:45:23;100044.88;;;-0.66;98.50
54270;BME280;40181;51.560;13.000;2022-12-10T12:48:04;100043.63;;;-0.56;99.44
54270;BME280;40181;51.560;13.000;2022-12-10T12:50:46;100040.34;;;-0.70;99.56
54270;BME280;40181;51.560;13.000;2022-12-10T12:53:19;100040.47;;;-0.85;99.64
54270;BME280;40181;51.560;13.000;2022-12-10T12:55:57;100041.72;;;-0.60;99.44
54270;BME280;40181;51.560;13.000;2022-12-10T12:58:39;100047.41;;;-0.49;99.35
54270;BME280;40181;51.560;13.000;2022-12-10T13:01:20;100047.25;;;-0.52;98.81
54270;BME280;40181;51.560;13.000;2022-12-10T13:03:54;100045.78;;;-0.47;98.65
54270;BME280;40181;51.560;13.000;2022-12-10T13:06:28;100043.25;;;-0.64;98.89
54270;BME280;40181;51.560;13.000;2022-12-10T13:09:16;100048.28;;;-0.67;98.91
54270;BME280;40181;51.560;13.000;2022-12-10T13:12:26;100044.75;;;-0.51;98.72
54270;BME280;40181;51.560;13.000;2022-12-10T13:15:11;100049.06;;;-0.68;98.55